Time;durP1;ratioP1;P1;durP2;ratioP2;P2;SDS_P1;SDS_P2;PMS_P1;PMS_P2;Temp;Humidity;BMP_temperature;BMP_pressure;BME280_temperature;BME280_humidity;BME280_pressure;Samples;Min_cycle;Max_cycle;Signal;HPM_P1;HPM_P2
2021/12/31 00:01:56;;;;;;;9.13;1.15;;;;;;;10.92;100.00;99971.34;2026081;77;22217;-74
2021/12/31 00:04:59;;;;;;;6.26;1.41;;;;;;;10.94;100.00;99968.75;2028176;79;20414;-74
2021/12/31 00:08:02;;;;;;;8.40;1.02;;;;;;;10.94;100.00;99966.16;2028743;79;20194;-74
2021/12/31 00:11:05;;;;;;;6.82;1.14;;;;;;;10.94;100.00;99973.94;2030773;79;20170;-74
2021/12/31 00:14:08;;;;;;;7.39;1.05;;;;;;;10.93;100.00;99975.66;2028722;79;20239;-74
2021/12/31 00:17:11;;;;;;;2.64;1.00;;;;;;;10.89;100.00;99966.13;2028667;77;21051;-74
2021/12/31 00:20:17;;;;;;;6.96;1.09;;;;;;;10.91;100.00;99967.00;2029500;79;20194;-74
2021/12/31 00:23:24;;;;;;;3.75;1.33;;;;;;;10.97;100.00;99972.25;2029008;79;20279;-74
2021/12/31 00:26:26;;;;;;;4.14;1.01;;;;;;;11.00;100.00;99956.66;2028694;79;20983;-74
2021/12/31 00:29:29;;;;;;;4.65;0.90;;;;;;;11.00;100.00;99969.66;2029073;79;20258;-74
2021/12/31 00:35:51;;;;;;;3.66;0.90;;;;;;;11.00;100.00;99961.84;2017386;80;20196;-75
2021/12/31 00:38:54;;;;;;;4.22;0.88;;;;;;;10.98;100.00;99958.38;2013076;80;20189;-74
2021/12/31 00:41:56;;;;;;;3.24;0.90;;;;;;;10.98;100.00;99955.78;2012726;80;20180;-74
2021/12/31 00:44:59;;;;;;;3.04;1.00;;;;;;;10.97;100.00;99948.84;2012590;80;20233;-74
2021/12/31 00:48:02;;;;;;;4.06;0.74;;;;;;;10.96;100.00;99941.06;2013684;77;22605;-74
2021/12/31 00:51:05;;;;;;;7.55;1.25;;;;;;;10.96;100.00;99948.84;2012889;80;20196;-74
2021/12/31 00:54:07;;;;;;;5.74;1.48;;;;;;;10.94;100.00;99946.22;2012718;80;20195;-75
2021/12/31 00:57:11;;;;;;;3.47;0.95;;;;;;;10.94;100.00;99943.63;2013666;80;20180;-75
2021/12/31 01:00:15;;;;;;;6.50;0.96;;;;;;;10.89;100.00;99941.03;2012655;80;20177;-75
2021/12/31 01:03:17;;;;;;;3.79;0.73;;;;;;;10.91;100.00;99930.63;2024064;80;20191;-75
2021/12/31 01:06:20;;;;;;;3.42;0.71;;;;;;;10.86;100.00;99929.75;2023225;80;20175;-75
2021/12/31 01:09:22;;;;;;;3.15;0.86;;;;;;;10.86;100.00;99930.63;2024888;80;20204;-75
2021/12/31 01:12:26;;;;;;;5.81;0.94;;;;;;;10.88;100.00;99933.22;2024585;80;20235;-75
2021/12/31 01:15:39;;;;;;;2.91;0.85;;;;;;;10.90;100.00;99929.75;2022857;77;20903;-75
2021/12/31 01:21:56;;;;;;;5.99;0.86;;;;;;;10.98;100.00;99931.53;2019958;80;20203;-75
2021/12/31 01:24:59;;;;;;;4.81;1.02;;;;;;;10.97;100.00;99941.06;2020329;80;20176;-75
2021/12/31 01:28:03;;;;;;;4.03;0.88;;;;;;;10.96;100.00;99930.66;2019621;80;20171;-75
2021/12/31 01:31:06;;;;;;;2.17;0.71;;;;;;;10.93;100.00;99928.03;2018606;78;20841;-75
2021/12/31 01:34:09;;;;;;;5.68;0.91;;;;;;;10.93;100.00;99930.63;2020636;80;20168;-75
2021/12/31 01:37:11;;;;;;;4.93;0.80;;;;;;;10.92;100.00;99939.28;2020764;80;20183;-75
2021/12/31 01:40:14;;;;;;;2.38;1.00;;;;;;;10.94;100.00;99924.56;2020263;80;20192;-75
2021/12/31 01:43:18;;;;;;;2.94;1.00;;;;;;;10.86;99.77;99927.16;2020227;80;20214;-75
2021/12/31 01:46:21;;;;;;;6.34;1.69;;;;;;;10.95;100.00;99927.22;2019144;77;20183;-75
2021/12/31 01:49:27;;;;;;;3.34;1.01;;;;;;;11.07;99.51;99928.94;2020026;80;20289;-75
2021/12/31 01:52:30;;;;;;;1.95;1.00;;;;;;;11.09;98.57;99933.28;2019796;80;20333;-75
2021/12/31 01:55:33;;;;;;;2.30;1.00;;;;;;;11.11;98.33;99928.94;2019476;80;20183;-75
2021/12/31 01:58:36;;;;;;;3.26;1.11;;;;;;;11.13;97.90;99931.53;2019978;80;20208;-75
2021/12/31 02:01:39;;;;;;;3.31;1.00;;;;;;;11.13;97.46;99932.44;2018235;77;23915;-75
2021/12/31 02:04:42;;;;;;;2.38;0.90;;;;;;;11.09;97.10;99929.81;2019770;80;21019;-75
2021/12/31 02:07:44;;;;;;;2.41;0.89;;;;;;;11.01;97.10;99935.00;2019532;80;20529;-75
2021/12/31 02:10:51;;;;;;;5.60;1.14;;;;;;;10.98;97.19;99932.41;2020197;80;20163;-75
2021/12/31 02:13:54;;;;;;;5.71;1.13;;;;;;;10.96;97.36;99935.88;2019676;80;20196;-75
2021/12/31 02:16:57;;;;;;;2.86;0.90;;;;;;;10.93;97.19;99944.50;2018830;77;20221;-74
2021/12/31 02:20:04;;;;;;;3.03;0.86;;;;;;;10.86;97.48;99938.41;2019392;80;20845;-75
2021/12/31 02:23:17;;;;;;;7.32;1.06;;;;;;;10.82;97.59;99939.28;2019699;80;20187;-75
2021/12/31 02:26:19;;;;;;;7.04;0.84;;;;;;;10.75;97.70;99937.50;2020126;80;20914;-75
2021/12/31 02:29:23;;;;;;;3.26;0.89;;;;;;;10.69;97.77;99941.81;2020453;80;20289;-75
2021/12/31 02:32:26;;;;;;;2.11;0.77;;;;;;;10.64;97.88;99946.13;2018254;77;21176;-75
2021/12/31 02:35:30;;;;;;;5.86;0.90;;;;;;;10.60;97.93;99963.44;2019492;80;20188;-75
2021/12/31 02:38:33;;;;;;;6.06;0.79;;;;;;;10.56;97.96;99957.34;2019755;80;20303;-75
2021/12/31 02:41:36;;;;;;;2.99;0.80;;;;;;;10.53;98.09;99953.88;2019992;80;20164;-75
2021/12/31 02:44:40;;;;;;;5.82;1.08;;;;;;;10.51;98.29;99947.81;2020270;80;20245;-75
2021/12/31 02:47:46;;;;;;;2.41;0.74;;;;;;;10.50;98.37;99954.72;2019542;77;20211;-75
2021/12/31 02:50:48;;;;;;;3.14;0.90;;;;;;;10.49;98.55;99950.41;2020496;80;20567;-75
2021/12/31 02:53:54;;;;;;;5.88;1.00;;;;;;;10.47;98.63;99952.13;2020689;80;20201;-75
2021/12/31 02:56:56;;;;;;;3.16;0.82;;;;;;;10.46;98.67;99950.38;2020012;80;20268;-75
2021/12/31 02:59:59;;;;;;;5.44;0.96;;;;;;;10.45;98.72;99953.84;2020821;80;20179;-75
2021/12/31 03:03:06;;;;;;;5.06;1.15;;;;;;;10.42;98.60;99958.16;2020763;77;20255;-75
2021/12/31 03:06:09;;;;;;;3.90;0.90;;;;;;;10.37;98.76;99952.91;2022331;80;20187;-75
2021/12/31 03:09:14;;;;;;;3.60;1.06;;;;;;;10.36;98.90;99956.38;2021353;80;20215;-75
2021/12/31 03:12:17;;;;;;;1.98;0.85;;;;;;;10.32;98.71;99953.75;2020649;80;20632;-75
2021/12/31 03:15:20;;;;;;;4.30;0.90;;;;;;;10.24;98.58;99946.81;2018821;77;21236;-75
2021/12/31 03:18:23;;;;;;;5.13;0.90;;;;;;;10.19;98.65;99938.06;2020014;80;20829;-75
2021/12/31 03:21:25;;;;;;;3.88;0.96;;;;;;;10.12;98.70;99938.03;2020051;80;20372;-75
2021/12/31 03:24:28;;;;;;;3.55;1.02;;;;;;;10.06;98.57;99930.22;2020592;80;20253;-75
2021/12/31 03:27:31;;;;;;;5.20;0.89;;;;;;;9.99;98.66;99922.38;2021015;80;21271;-75
2021/12/31 03:30:34;;;;;;;2.71;1.40;;;;;;;9.94;98.69;99920.63;2019909;78;23066;-75
2021/12/31 03:33:37;;;;;;;6.15;1.73;;;;;;;9.89;98.86;99928.38;2026179;80;21160;-75
2021/12/31 03:36:41;;;;;;;3.92;1.30;;;;;;;9.86;99.00;99928.34;2025271;80;20263;-75
2021/12/31 03:39:44;;;;;;;4.61;1.10;;;;;;;9.83;99.22;99925.72;2027371;80;20371;-75
2021/12/31 03:42:47;;;;;;;5.84;1.24;;;;;;;9.88;99.67;99920.59;2026663;80;20166;-75
2021/12/31 03:45:51;;;;;;;3.84;1.04;;;;;;;9.84;99.46;99931.78;2025117;77;21779;-74
2021/12/31 03:48:54;;;;;;;5.11;1.13;;;;;;;9.83;99.68;99933.50;2026995;80;20183;-75
2021/12/31 03:51:57;;;;;;;1.89;0.94;;;;;;;9.80;99.63;99932.63;2026060;80;20323;-75
2021/12/31 03:54:59;;;;;;;3.06;1.20;;;;;;;9.76;99.58;99923.97;2027168;80;20316;-74
2021/12/31 03:58:02;;;;;;;4.31;1.25;;;;;;;9.75;99.62;99926.53;2026289;80;20344;-75
2021/12/31 04:01:05;;;;;;;6.34;1.64;;;;;;;9.75;99.99;99926.53;2024871;77;20703;-75
2021/12/31 04:04:08;;;;;;;3.44;1.35;;;;;;;9.85;100.00;99921.41;2026497;80;20216;-75
2021/12/31 04:07:10;;;;;;;5.19;0.88;;;;;;;9.81;100.00;99924.84;2026216;80;20364;-75
2021/12/31 04:10:13;;;;;;;3.91;1.36;;;;;;;9.76;100.00;99923.09;2025107;80;20381;-75
2021/12/31 04:13:15;;;;;;;3.55;0.90;;;;;;;9.72;100.00;99914.44;2025631;80;20328;-75
2021/12/31 04:16:18;;;;;;;3.75;0.99;;;;;;;9.72;100.00;99911.84;2022547;77;23460;-75
2021/12/31 04:19:21;;;;;;;3.92;1.10;;;;;;;9.69;100.00;99910.09;2020486;80;20332;-74
2021/12/31 04:22:26;;;;;;;5.44;1.27;;;;;;;9.65;100.00;99904.84;2019944;80;20187;-74
2021/12/31 04:25:29;;;;;;;5.04;1.21;;;;;;;9.66;100.00;99904.88;2020023;80;20401;-74
2021/12/31 04:28:31;;;;;;;7.93;1.04;;;;;;;9.67;100.00;99905.72;2020260;80;20346;-74
2021/12/31 04:31:34;;;;;;;3.66;0.90;;;;;;;9.66;100.00;99891.91;2021428;77;21836;-74
2021/12/31 04:34:36;;;;;;;2.61;1.08;;;;;;;9.67;100.00;99891.03;2025326;80;20365;-75
2021/12/31 04:37:42;;;;;;;5.11;1.31;;;;;;;9.66;100.00;99884.13;2025330;80;20232;-75
2021/12/31 04:40:44;;;;;;;7.03;1.30;;;;;;;9.69;100.00;99875.50;2024916;80;20167;-74
2021/12/31 04:43:47;;;;;;;4.68;1.38;;;;;;;9.73;100.00;99884.19;2024801;80;20191;-75
2021/12/31 04:46:49;;;;;;;7.88;1.46;;;;;;;9.79;100.00;99889.41;2024083;77;21995;-75
2021/12/31 04:49:52;;;;;;;2.90;1.23;;;;;;;9.82;100.00;99884.22;2025401;80;20396;-75
2021/12/31 04:52:55;;;;;;;9.01;1.58;;;;;;;9.82;100.00;99892.88;2025411;80;20179;-74
2021/12/31 04:55:57;;;;;;;1.55;1.06;;;;;;;9.83;100.00;99884.25;2025963;80;20790;-75
2021/12/31 04:59:00;;;;;;;3.51;1.11;;;;;;;9.80;100.00;99876.44;2026217;80;20324;-75
2021/12/31 05:02:03;;;;;;;5.86;1.45;;;;;;;9.73;100.00;99874.69;2022858;77;36339;-75
2021/12/31 05:05:06;;;;;;;4.88;1.70;;;;;;;9.63;99.90;99873.72;2025258;80;20203;-75
2021/12/31 05:08:09;;;;;;;2.71;1.51;;;;;;;9.61;100.00;99875.44;2024937;80;20338;-74
2021/12/31 05:11:11;;;;;;;4.04;1.30;;;;;;;9.58;100.00;99875.44;2024494;80;20219;-75
2021/12/31 05:14:14;;;;;;;4.91;1.73;;;;;;;9.54;100.00;99880.59;2021479;80;20293;-74
2021/12/31 05:17:16;;;;;;;6.13;2.26;;;;;;;9.46;99.81;99880.50;2023852;77;21432;-74
2021/12/31 05:20:19;;;;;;;4.74;2.13;;;;;;;9.39;99.72;99877.00;2025448;80;20195;-75
2021/12/31 05:23:22;;;;;;;3.60;1.81;;;;;;;9.33;99.64;99882.13;2025282;80;20439;-74
2021/12/31 05:26:25;;;;;;;3.96;1.66;;;;;;;9.29;99.60;99876.91;2025941;80;20292;-74
2021/12/31 05:29:27;;;;;;;3.61;1.66;;;;;;;9.21;99.42;99868.22;2025560;80;20323;-74
2021/12/31 05:32:31;;;;;;;3.44;1.83;;;;;;;9.10;99.01;99875.88;2019077;77;21412;-74
2021/12/31 05:35:33;;;;;;;3.91;1.60;;;;;;;8.99;98.71;99880.97;2018998;80;20398;-74
2021/12/31 05:38:36;;;;;;;3.66;2.05;;;;;;;8.90;98.30;99883.47;2019359;80;20332;-74
2021/12/31 05:41:39;;;;;;;4.30;1.94;;;;;;;8.78;98.09;99888.50;2020317;80;20396;-74
2021/12/31 05:44:42;;;;;;;4.18;1.70;;;;;;;8.66;97.80;99897.03;2019992;80;20825;-74
2021/12/31 05:47:47;;;;;;;3.51;1.89;;;;;;;8.59;98.05;99902.09;2017867;77;20476;-74
2021/12/31 05:50:50;;;;;;;4.55;1.81;;;;;;;8.53;98.22;99897.72;2019756;80;20402;-74
2021/12/31 05:53:52;;;;;;;2.90;1.91;;;;;;;8.47;98.38;99895.06;2019822;80;20361;-74
2021/12/31 05:56:55;;;;;;;2.47;1.73;;;;;;;8.41;98.53;99901.03;2019713;80;20333;-74
2021/12/31 05:59:57;;;;;;;5.06;2.29;;;;;;;8.37;98.80;99909.59;2019984;80;20341;-74
2021/12/31 06:03:00;;;;;;;4.64;2.42;;;;;;;8.31;99.00;99903.47;2018228;77;20326;-74
2021/12/31 06:06:03;;;;;;;4.56;1.80;;;;;;;8.25;99.16;99900.78;2019317;80;20336;-74
2021/12/31 06:09:07;;;;;;;6.06;2.22;;;;;;;8.22;99.38;99904.19;2019698;80;20840;-74
2021/12/31 06:12:09;;;;;;;5.51;2.36;;;;;;;8.14;99.55;99896.34;2017576;80;20341;-74
2021/12/31 06:15:16;;;;;;;2.84;1.77;;;;;;;8.09;99.57;99886.78;2016928;80;20719;-74
2021/12/31 06:18:18;;;;;;;8.39;2.88;;;;;;;8.00;99.40;99882.34;2019388;80;20348;-74
2021/12/31 06:21:21;;;;;;;3.83;1.63;;;;;;;7.91;99.38;99892.59;2019852;80;20313;-74
2021/12/31 06:24:25;;;;;;;3.83;1.92;;;;;;;7.92;99.74;99902.06;2019126;80;20347;-74
2021/12/31 06:27:28;;;;;;;1.81;1.71;;;;;;;7.88;99.87;99895.09;2018777;80;20348;-74
2021/12/31 06:30:31;;;;;;;3.88;2.45;;;;;;;7.84;99.78;99906.25;2017785;77;20738;-74
2021/12/31 06:33:33;;;;;;;4.81;2.10;;;;;;;7.78;99.88;99911.34;2018890;80;21016;-74
2021/12/31 06:36:36;;;;;;;4.69;2.15;;;;;;;7.77;100.00;99914.78;2018545;80;20309;-74
2021/12/31 06:39:41;;;;;;;4.00;2.11;;;;;;;7.77;100.00;99914.78;2019009;80;20378;-74
2021/12/31 06:42:43;;;;;;;3.06;1.90;;;;;;;7.70;100.00;99905.16;2018636;80;20386;-74
2021/12/31 06:45:46;;;;;;;2.34;1.71;;;;;;;7.64;100.00;99913.69;2017532;77;21045;-74
2021/12/31 06:48:48;;;;;;;3.34;1.67;;;;;;;7.58;100.00;99919.66;2019821;80;20418;-74
2021/12/31 06:51:51;;;;;;;3.85;1.73;;;;;;;7.55;100.00;99906.69;2018556;80;20346;-74
2021/12/31 06:54:54;;;;;;;3.20;2.36;;;;;;;7.49;100.00;99911.75;2018771;80;20472;-74
2021/12/31 06:57:57;;;;;;;4.76;2.13;;;;;;;7.39;100.00;99906.41;2019519;80;20317;-74
2021/12/31 07:00:59;;;;;;;1.92;1.56;;;;;;;7.36;100.00;99896.00;2021257;77;21126;-74
2021/12/31 07:04:02;;;;;;;2.55;1.88;;;;;;;7.32;100.00;99894.22;2020419;80;20372;-74
2021/12/31 07:07:05;;;;;;;4.35;1.89;;;;;;;7.28;100.00;99882.97;2018816;80;21181;-74
2021/12/31 07:10:08;;;;;;;2.69;1.75;;;;;;;7.27;100.00;99894.16;2019472;80;20366;-74
2021/12/31 07:13:11;;;;;;;2.96;1.70;;;;;;;7.26;100.00;99893.28;2019234;80;20378;-74
2021/12/31 07:16:13;;;;;;;2.42;1.61;;;;;;;7.24;100.00;99889.81;2017166;77;22383;-74
2021/12/31 07:19:16;;;;;;;1.60;1.50;;;;;;;7.18;100.00;99896.56;2020335;80;20333;-74
2021/12/31 07:22:18;;;;;;;4.50;1.70;;;;;;;7.12;100.00;99891.31;2019863;80;20374;-74
2021/12/31 07:25:21;;;;;;;2.39;1.63;;;;;;;7.02;100.00;99898.03;2018867;80;20924;-73
2021/12/31 07:28:24;;;;;;;1.79;1.65;;;;;;;6.96;100.00;99891.03;2019469;80;20316;-73
2021/12/31 07:31:26;;;;;;;1.91;1.73;;;;;;;6.98;100.00;99896.22;2018284;77;21135;-74
2021/12/31 07:34:29;;;;;;;2.44;2.24;;;;;;;7.01;100.00;99905.75;2017860;80;20468;-74
2021/12/31 07:37:32;;;;;;;1.91;1.80;;;;;;;7.04;100.00;99919.56;2018056;80;20390;-74
2021/12/31 07:40:39;;;;;;;2.71;2.19;;;;;;;7.06;100.00;99923.06;2017713;80;20309;-74
2021/12/31 07:43:42;;;;;;;2.04;1.81;;;;;;;7.10;100.00;99911.06;2017909;80;20811;-74
2021/12/31 07:46:46;;;;;;;2.69;2.09;;;;;;;7.09;100.00;99905.03;2019065;78;22869;-74
2021/12/31 07:49:49;;;;;;;2.67;1.98;;;;;;;7.10;100.00;99903.31;2023763;80;20376;-74
2021/12/31 07:52:51;;;;;;;4.19;2.13;;;;;;;7.03;100.00;99899.78;2023857;80;20361;-74
2021/12/31 07:55:54;;;;;;;2.83;1.76;;;;;;;7.00;100.00;99912.59;2027653;80;20347;-75
2021/12/31 07:58:56;;;;;;;1.91;1.66;;;;;;;7.00;100.00;99919.47;2024657;80;20360;-74
2021/12/31 08:01:59;;;;;;;1.96;1.80;;;;;;;7.03;100.00;99923.00;2017633;77;24171;-74
2021/12/31 08:05:07;;;;;;;1.59;1.49;;;;;;;7.05;100.00;99918.72;2017746;80;20369;-74
2021/12/31 08:08:10;;;;;;;1.81;1.71;;;;;;;7.05;100.00;99931.66;2018287;80;20337;-74
2021/12/31 08:11:12;;;;;;;1.77;1.67;;;;;;;7.10;100.00;99931.72;2017717;80;20817;-74
2021/12/31 08:14:14;;;;;;;1.98;1.48;;;;;;;7.13;100.00;99940.38;2017688;80;20439;-74
2021/12/31 08:17:17;;;;;;;2.69;1.40;;;;;;;7.16;100.00;99935.28;2016613;77;20535;-74
2021/12/31 08:20:21;;;;;;;1.19;1.19;;;;;;;7.20;100.00;99931.94;2017714;80;20401;-74
2021/12/31 08:23:24;;;;;;;1.30;1.20;;;;;;;7.19;100.00;99935.34;2017888;80;20526;-74
2021/12/31 08:26:26;;;;;;;1.35;1.25;;;;;;;7.20;100.00;99943.97;2017694;80;20344;-74
2021/12/31 08:29:29;;;;;;;1.05;1.02;;;;;;;7.20;100.00;99955.16;2020884;80;20344;-73
2021/12/31 08:32:32;;;;;;;1.61;1.00;;;;;;;7.16;100.00;99945.59;2015655;78;21662;-73
2021/12/31 08:35:35;;;;;;;1.69;1.06;;;;;;;7.18;100.00;99948.22;2017158;80;20354;-74
2021/12/31 08:38:37;;;;;;;1.14;1.10;;;;;;;7.19;100.00;99953.44;2017628;80;20351;-74
2021/12/31 08:41:41;;;;;;;0.93;0.90;;;;;;;7.19;100.00;99947.41;2018089;80;20358;-74
2021/12/31 08:44:49;;;;;;;1.16;1.06;;;;;;;7.22;100.00;99947.44;2017037;80;20447;-74
2021/12/31 08:47:52;;;;;;;0.82;0.82;;;;;;;7.24;100.00;99953.50;2015537;77;20472;-74
2021/12/31 08:50:54;;;;;;;3.06;1.00;;;;;;;7.25;100.00;99953.53;2018014;80;20439;-74
2021/12/31 08:53:57;;;;;;;0.88;0.88;;;;;;;7.30;100.00;99950.16;2017400;80;20309;-74
2021/12/31 08:57:00;;;;;;;2.01;0.85;;;;;;;7.33;100.00;99945.03;2018981;80;20426;-74
2021/12/31 09:00:05;;;;;;;1.10;0.95;;;;;;;7.37;100.00;99944.28;2016638;80;20393;-74
2021/12/31 09:03:08;;;;;;;0.99;0.95;;;;;;;7.44;100.00;99951.28;2019113;77;21030;-74
2021/12/31 09:06:11;;;;;;;0.70;0.70;;;;;;;7.50;100.00;99949.66;2017165;80;20321;-73
2021/12/31 09:09:14;;;;;;;1.89;0.90;;;;;;;7.56;100.00;99952.34;2017296;80;20386;-74
2021/12/31 09:12:16;;;;;;;3.19;0.88;;;;;;;7.64;100.00;99936.97;2016657;80;20350;-74
2021/12/31 09:15:19;;;;;;;2.03;0.93;;;;;;;7.65;100.00;99935.25;2016190;80;20334;-76
2021/12/31 09:18:22;;;;;;;1.10;1.00;;;;;;;7.66;100.00;99944.72;2016627;78;43584;-74
2021/12/31 09:21:25;;;;;;;1.84;1.21;;;;;;;7.71;100.00;99938.78;2016617;80;20371;-74
2021/12/31 09:24:27;;;;;;;4.18;1.00;;;;;;;7.77;100.00;99933.72;2017333;80;20333;-74
2021/12/31 09:27:30;;;;;;;1.26;0.90;;;;;;;7.80;100.00;99941.53;2017280;80;20341;-74
2021/12/31 09:30:34;;;;;;;2.24;1.00;;;;;;;7.84;100.00;99955.38;2016160;77;20778;-74
2021/12/31 09:33:37;;;;;;;1.00;1.00;;;;;;;7.89;100.00;99962.34;2017398;80;20333;-74
2021/12/31 09:36:39;;;;;;;1.92;1.41;;;;;;;8.00;100.00;99953.88;2017257;80;21411;-74
2021/12/31 09:39:42;;;;;;;1.15;1.00;;;;;;;8.18;100.00;99956.75;2017221;80;21378;-74
2021/12/31 09:42:51;;;;;;;1.70;1.14;;;;;;;8.32;100.00;99956.94;2018585;80;20830;-75
2021/12/31 09:45:55;;;;;;;1.19;1.08;;;;;;;8.42;100.00;99951.06;2017369;77;22593;-74
2021/12/31 09:48:58;;;;;;;2.92;1.55;;;;;;;8.55;100.00;99967.63;2017356;80;20336;-74
2021/12/31 09:52:02;;;;;;;2.05;1.74;;;;;;;8.60;100.00;99969.41;2017450;80;20346;-73
2021/12/31 09:55:05;;;;;;;1.35;1.10;;;;;;;8.62;100.00;99967.75;2018562;80;20964;-74
2021/12/31 09:58:09;;;;;;;3.91;1.46;;;;;;;8.68;100.00;99967.81;2019205;80;20332;-74
2021/12/31 10:01:12;;;;;;;1.20;1.11;;;;;;;8.66;99.19;99971.22;2016910;77;21593;-74
2021/12/31 10:04:15;;;;;;;1.51;1.41;;;;;;;8.62;98.96;99974.63;2018930;80;20736;-74
2021/12/31 10:07:23;;;;;;;1.15;1.05;;;;;;;8.61;98.93;99986.69;2018634;80;20329;-73
2021/12/31 10:10:26;;;;;;;1.34;1.20;;;;;;;8.58;98.80;99983.19;2019055;80;20416;-74
2021/12/31 10:13:29;;;;;;;1.23;0.90;;;;;;;8.61;99.04;99997.03;2019667;80;20384;-74
2021/12/31 10:16:40;;;;;;;1.64;0.91;;;;;;;8.68;99.23;99998.88;2016944;77;22819;-74
2021/12/31 10:19:56;;;;;;;0.99;0.93;;;;;;;8.82;99.41;100011.13;2019318;80;20352;-74
2021/12/31 10:23:15;;;;;;;1.02;0.93;;;;;;;8.86;99.09;100002.53;2019062;80;20332;-74
2021/12/31 10:26:17;;;;;;;0.96;0.86;;;;;;;8.91;99.07;100013.81;2018787;80;20338;-76
2021/12/31 10:29:21;;;;;;;1.34;0.86;;;;;;;9.00;99.26;100011.34;2019452;80;21006;-74
2021/12/31 10:32:26;;;;;;;0.80;0.80;;;;;;;9.05;99.05;100028.69;2017488;77;21308;-75
2021/12/31 10:35:43;;;;;;;1.35;0.81;;;;;;;9.08;98.61;100049.44;2018821;80;20353;-74
2021/12/31 10:38:46;;;;;;;1.00;0.90;;;;;;;9.12;98.58;100036.50;2018630;80;20891;-74
2021/12/31 10:41:57;;;;;;;2.05;1.01;;;;;;;9.16;98.45;100039.19;2018731;80;20321;-74
2021/12/31 10:45:03;;;;;;;1.05;0.95;;;;;;;9.21;98.62;100015.91;2019058;80;20301;-73
2021/12/31 10:48:10;;;;;;;1.41;1.13;;;;;;;9.28;98.48;100010.78;2017970;78;26172;-74
2021/12/31 10:51:19;;;;;;;1.50;1.30;;;;;;;9.37;98.59;100005.72;2017022;80;20452;-74
2021/12/31 10:57:37;;;;;;;1.65;1.44;;;;;;;9.54;98.11;99997.25;2019102;80;20252;-74
2021/12/31 11:00:43;;;;;;;2.03;1.34;;;;;;;9.60;98.15;100015.44;2017134;77;20484;-75
2021/12/31 11:03:46;;;;;;;1.90;1.60;;;;;;;9.65;98.06;100005.97;2019190;80;20172;-75
2021/12/31 11:06:49;;;;;;;1.96;1.76;;;;;;;9.80;98.10;99987.97;2020261;80;20747;-77
2021/12/31 11:09:52;;;;;;;4.65;2.44;;;;;;;9.94;97.98;99985.47;2019463;80;20290;-77
2021/12/31 11:12:55;;;;;;;2.83;2.42;;;;;;;10.08;97.44;99980.41;2019949;80;20386;-77
2021/12/31 11:15:59;;;;;;;3.85;2.78;;;;;;;10.16;96.99;99978.72;2019007;80;20636;-74
2021/12/31 11:19:02;;;;;;;4.79;3.79;;;;;;;10.24;96.81;99967.56;2023450;80;20187;-75
2021/12/31 11:22:04;;;;;;;4.85;3.26;;;;;;;10.31;96.27;99971.06;2023849;80;20167;-74
2021/12/31 11:25:24;;;;;;;3.70;2.97;;;;;;;10.27;95.45;99965.00;2023634;80;20194;-74
2021/12/31 11:28:32;;;;;;;2.91;2.51;;;;;;;10.26;95.48;99960.66;2023125;80;20183;-74
2021/12/31 11:31:40;;;;;;;3.64;2.56;;;;;;;10.29;95.54;99972.78;2022571;77;22598;-74
2021/12/31 11:34:43;;;;;;;3.51;2.91;;;;;;;10.27;95.37;99959.81;2023590;80;20198;-74
2021/12/31 11:37:46;;;;;;;3.74;2.72;;;;;;;10.31;95.56;99950.28;2023799;80;20970;-75
2021/12/31 11:41:01;;;;;;;3.08;2.64;;;;;;;10.35;95.61;99946.84;2023479;80;20191;-74
2021/12/31 11:44:09;;;;;;;3.20;2.90;;;;;;;10.38;95.78;99943.41;2025003;80;20211;-75
2021/12/31 11:47:13;;;;;;;4.10;2.48;;;;;;;10.40;95.99;99949.47;2019123;77;20191;-74
2021/12/31 11:50:25;;;;;;;4.36;3.04;;;;;;;10.39;95.94;99964.16;2018721;80;20188;-75
2021/12/31 11:53:28;;;;;;;5.84;3.44;;;;;;;10.41;95.74;99959.88;2018861;80;20233;-74
2021/12/31 11:56:36;;;;;;;6.85;4.05;;;;;;;10.43;95.78;99963.34;2014992;80;20229;-74
2021/12/31 11:59:49;;;;;;;8.48;4.79;;;;;;;10.47;95.63;99946.94;2017990;80;20264;-74
2021/12/31 12:02:52;;;;;;;7.82;4.18;;;;;;;10.52;95.72;99916.66;2021648;78;20222;-74
2021/12/31 12:05:55;;;;;;;8.95;4.93;;;;;;;10.58;95.88;99921.00;2022923;80;20774;-75
2021/12/31 12:08:57;;;;;;;8.36;5.28;;;;;;;10.63;95.76;99910.66;2021825;80;20633;-74
2021/12/31 12:12:01;;;;;;;8.43;5.21;;;;;;;10.69;95.92;99903.72;2022550;80;20293;-74
2021/12/31 12:15:29;;;;;;;6.26;4.34;;;;;;;10.75;95.94;99910.66;2021896;80;20288;-74
2021/12/31 12:18:51;;;;;;;6.01;4.63;;;;;;;10.81;95.80;99916.78;2019230;80;20223;-74
2021/12/31 12:21:54;;;;;;;6.55;4.72;;;;;;;10.85;95.64;99904.66;2018769;80;20179;-74
2021/12/31 12:24:59;;;;;;;8.25;5.50;;;;;;;10.90;95.47;99898.59;2018665;80;20737;-74
2021/12/31 12:28:06;;;;;;;10.01;5.39;;;;;;;10.98;95.59;99884.78;2019033;80;20570;-75
2021/12/31 12:31:16;;;;;;;9.07;5.07;;;;;;;11.10;95.80;99884.75;2018129;77;27057;-74
2021/12/31 12:34:28;;;;;;;6.90;4.49;;;;;;;11.23;95.37;99888.25;2019508;80;20179;-75
2021/12/31 12:37:31;;;;;;;6.16;4.79;;;;;;;11.32;95.05;99878.75;2019158;80;20199;-75
2021/12/31 12:40:52;;;;;;;7.14;4.19;;;;;;;11.39;94.72;99890.00;2018353;80;20187;-75
2021/12/31 12:43:55;;;;;;;6.31;4.80;;;;;;;11.41;94.03;99896.94;2019097;80;20187;-75
2021/12/31 12:46:59;;;;;;;6.64;4.35;;;;;;;11.42;93.85;99923.81;2021032;77;20745;-74
2021/12/31 12:50:07;;;;;;;8.26;4.81;;;;;;;11.44;93.76;99917.72;2024189;80;20187;-74
2021/12/31 12:53:18;;;;;;;5.89;4.26;;;;;;;11.59;93.96;99893.47;2024082;80;20210;-74
2021/12/31 12:56:22;;;;;;;8.18;4.60;;;;;;;11.80;94.10;99895.22;2024772;80;20573;-75
2021/12/31 12:59:34;;;;;;;6.93;4.90;;;;;;;11.93;93.69;99883.91;2024145;80;20244;-74
2021/12/31 13:02:42;;;;;;;9.06;4.86;;;;;;;11.99;92.68;99896.03;2022229;77;22339;-74
2021/12/31 13:05:45;;;;;;;6.70;4.43;;;;;;;12.05;92.10;99885.63;2024238;80;20184;-74
2021/12/31 13:08:48;;;;;;;4.71;3.85;;;;;;;12.15;91.83;99853.47;2023580;80;20199;-75
2021/12/31 13:11:53;;;;;;;6.21;3.84;;;;;;;12.24;91.29;99874.31;2023760;80;20171;-74
2021/12/31 13:14:58;;;;;;;6.59;3.66;;;;;;;12.30;90.61;99899.44;2024672;80;20230;-75
2021/12/31 13:18:04;;;;;;;4.61;3.10;;;;;;;12.34;89.90;99901.16;2022669;77;21900;-75
2021/12/31 13:21:10;;;;;;;4.39;3.17;;;;;;;12.41;89.74;99879.44;2023821;80;20731;-75
2021/12/31 13:24:20;;;;;;;3.83;2.97;;;;;;;12.46;89.54;99877.69;2024612;80;20284;-75
2021/12/31 13:27:25;;;;;;;3.10;2.36;;;;;;;12.48;89.36;99870.72;2023595;80;20216;-75
2021/12/31 13:30:27;;;;;;;6.51;2.53;;;;;;;12.52;89.04;99855.94;2021458;77;22849;-75
2021/12/31 13:33:31;;;;;;;3.10;2.05;;;;;;;12.56;88.84;99852.44;2018589;80;20256;-75
2021/12/31 13:36:44;;;;;;;2.67;1.58;;;;;;;12.59;88.54;99853.31;2018809;80;20189;-75
2021/12/31 13:39:48;;;;;;;1.80;1.40;;;;;;;12.62;88.29;99848.09;2018808;80;20272;-75
2021/12/31 13:43:01;;;;;;;4.25;1.56;;;;;;;12.60;87.78;99849.84;2019421;80;20209;-75
2021/12/31 13:46:11;;;;;;;1.61;1.23;;;;;;;12.60;87.50;99860.25;2018370;77;24075;-75
2021/12/31 13:49:24;;;;;;;2.42;1.70;;;;;;;12.61;87.24;99850.69;2019589;80;20257;-75
2021/12/31 13:52:31;;;;;;;1.89;1.25;;;;;;;12.58;87.42;99866.34;2018612;80;20180;-75
2021/12/31 13:55:35;;;;;;;2.78;1.71;;;;;;;12.53;87.23;99874.16;2018165;80;20367;-74
2021/12/31 13:58:40;;;;;;;2.94;1.70;;;;;;;12.48;86.99;99896.75;2018883;80;20199;-75
2021/12/31 14:02:21;;;;;;;1.66;1.48;;;;;;;12.42;87.36;99888.13;2017106;77;20979;-74
2021/12/31 14:05:27;;;;;;;1.67;1.58;;;;;;;12.39;87.29;99899.44;2018667;80;20205;-75
2021/12/31 14:11:41;;;;;;;2.58;1.55;;;;;;;12.32;87.14;99924.59;2019450;80;20179;-74
2021/12/31 14:15:04;;;;;;;2.03;1.51;;;;;;;12.30;86.91;99920.28;2013557;80;20315;-74
2021/12/31 14:18:09;;;;;;;1.90;1.34;;;;;;;12.26;87.01;99923.75;2022186;77;22490;-74
2021/12/31 14:21:12;;;;;;;1.64;1.50;;;;;;;12.21;87.33;99923.78;2022555;80;20211;-74
2021/12/31 14:24:14;;;;;;;2.55;1.79;;;;;;;12.16;87.54;99929.84;2023394;80;20787;-74
2021/12/31 14:27:17;;;;;;;2.97;1.54;;;;;;;12.10;87.77;99921.19;2023281;80;20248;-75
2021/12/31 14:30:21;;;;;;;1.88;1.34;;;;;;;12.10;88.15;99917.72;2020942;77;21659;-74
2021/12/31 14:33:23;;;;;;;2.09;1.26;;;;;;;12.09;88.23;99922.06;2022825;80;20354;-74
2021/12/31 14:36:27;;;;;;;2.56;1.34;;;;;;;12.06;88.57;99926.41;2024067;80;20206;-74
2021/12/31 14:39:33;;;;;;;2.42;1.25;;;;;;;12.06;88.56;99922.06;2023814;80;20260;-74
2021/12/31 14:42:37;;;;;;;1.70;1.20;;;;;;;12.04;88.60;99935.97;2023954;80;20687;-74